Página principal
METAR-TAF:

METAR-TAF

Aeroportos :

Aeroporto Internacional do Kuwait

Kuwait, Kuwait

latitude: 29-13N, longitude: 047-59E, altura: 55 m

Observação actual do tempo

O boletim foi feito há 1 hora e 4 minutos, às 02:00 UTC
Vento 7 kt de oeste
Temperatura 27°C
Humidade 23%
Pressão 1002 hPa
Visibilidade: 5000 m
Céu limpo
(fraco) bruma

METAR: OKBK 240200Z 28007KT 5000 -HZ SKC 27/04 Q1002 NOSIG

Hora: 06:04 (03:04 UTC)

Previsão

O boletim foi feito há 4 horas e 19 minutos, às 22:45 UTC
Previsão válida de 24 às 00 UTC a 25 às 06 UTC
Vento 10 kt de oes-noroeste com rajadas de 20 kt
Visibilidade: 6000 m
Céu limpo
Temporariamente
de 24 às 00 UTC a 24 às 14 UTC
Visibilidade: 4000 m
Poeira levantada pelo vento

TAF: OKBK 232245Z 2400/2506 30010G20KT 6000 SKC TEMPO 2400/2414 4000 BLDU

Observações e previsões do tempo de mais de 4000 aeroportos (mensagens METAR e TAF).

As estações disponíveis são os pontos amarelos e vermelhos sobre o mapa.

Mova o rato sobre o mapa para ver o nome da estação.

Depois clique no ponto para visualizar as observações e previsões meteorológicas.

Para alterar o mapa : clique nos botões verdes com uma cruz preta para aumentar o zoom; no botão verde com uma pitada de zoom; ou nas setas verdes para mapas adjacentes.


METAR-TAF: